Time;durP1;ratioP1;P1;durP2;ratioP2;P2;SDS_P1;SDS_P2;PMS_P1;PMS_P2;Temp;Humidity;BMP_temperature;BMP_pressure;BME280_temperature;BME280_humidity;BME280_pressure;Samples;Min_cycle;Max_cycle;Signal;HPM_P1;HPM_P2
2022/12/01 00:02:22;;;;;;;14.20;12.37;;;;;;;6.90;55.43;98522.06;8379902;28;20583;-71
2022/12/01 00:06:25;;;;;;;16.10;13.33;;;;;;;6.62;55.88;98492.56;8379761;28;20500;-71
2022/12/01 00:10:29;;;;;;;15.23;12.57;;;;;;;6.89;55.73;98518.63;8379768;28;20236;-71
2022/12/01 00:14:32;;;;;;;17.37;14.13;;;;;;;6.94;55.21;98515.97;8379542;28;20229;-71
2022/12/01 00:18:35;;;;;;;15.57;12.60;;;;;;;7.06;55.08;98518.28;8379501;28;20237;-71
2022/12/01 00:22:37;;;;;;;15.67;13.53;;;;;;;6.94;55.30;98498.78;8379510;28;20491;-71
2022/12/01 00:26:42;;;;;;;15.57;13.10;;;;;;;7.07;55.32;98516.56;8379361;28;20237;-71
2022/12/01 00:30:45;;;;;;;18.03;14.60;;;;;;;7.05;55.32;98514.03;8379265;28;20281;-71
2022/12/01 00:34:47;;;;;;;17.07;14.00;;;;;;;6.94;55.95;98510.81;8379251;28;20233;-71
2022/12/01 00:38:52;;;;;;;16.50;13.50;;;;;;;6.85;55.57;98514.44;8379300;28;20233;-71
2022/12/01 00:42:56;;;;;;;18.37;14.50;;;;;;;6.94;55.44;98510.81;8379028;28;20224;-71
2022/12/01 00:46:59;;;;;;;17.97;13.93;;;;;;;6.88;56.33;98521.25;8379249;28;20229;-71
2022/12/01 00:51:02;;;;;;;17.70;14.17;;;;;;;6.93;56.05;98522.84;8380764;28;20240;-71
2022/12/01 00:55:06;;;;;;;17.07;13.73;;;;;;;6.94;56.28;98518.53;8385128;28;20524;-71
2022/12/01 00:59:10;;;;;;;16.83;13.73;;;;;;;6.97;56.25;98526.22;8384946;28;20236;-71
2022/12/01 01:03:13;;;;;;;16.27;13.43;;;;;;;7.05;55.96;98525.16;8384587;28;20259;-71
2022/12/01 01:07:16;;;;;;;15.90;13.13;;;;;;;7.12;55.84;98527.59;8384467;28;20513;-71
2022/12/01 01:11:19;;;;;;;17.20;13.80;;;;;;;6.92;56.03;98533.19;8384433;28;20228;-71
2022/12/01 01:15:23;;;;;;;14.93;12.13;;;;;;;7.09;55.79;98530.25;8384221;28;20236;-71
2022/12/01 01:19:26;;;;;;;17.43;13.57;;;;;;;7.07;56.03;98524.28;8383990;28;20240;-71
2022/12/01 01:23:29;;;;;;;15.83;12.53;;;;;;;6.97;56.33;98531.38;8384074;28;20332;-71
2022/12/01 01:27:32;;;;;;;16.90;13.97;;;;;;;7.10;55.80;98537.09;8383893;28;20248;-71
2022/12/01 01:31:36;;;;;;;17.60;13.27;;;;;;;7.14;55.96;98539.59;8383872;28;20244;-71
2022/12/01 01:35:39;;;;;;;17.77;13.77;;;;;;;7.17;56.19;98543.81;8383440;28;20528;-71
2022/12/01 01:39:42;;;;;;;15.73;12.80;;;;;;;7.12;56.20;98536.19;8383396;28;20236;-71
2022/12/01 01:43:46;;;;;;;17.90;14.07;;;;;;;6.91;56.41;98540.06;8383393;28;20270;-71
2022/12/01 01:47:52;;;;;;;17.33;13.53;;;;;;;6.91;56.07;98526.31;8383106;28;20229;-71
2022/12/01 01:51:56;;;;;;;17.13;13.70;;;;;;;7.11;56.05;98541.38;8374759;28;20228;-71
2022/12/01 01:55:59;;;;;;;17.73;13.33;;;;;;;7.23;56.16;98543.69;8383100;28;20424;-71
2022/12/01 02:00:06;;;;;;;17.60;13.87;;;;;;;7.08;55.72;98544.00;8382922;28;20528;-71
2022/12/01 02:04:11;;;;;;;20.40;14.80;;;;;;;7.20;55.99;98546.34;8382661;28;20420;-71
2022/12/01 02:08:14;;;;;;;19.33;14.13;;;;;;;7.11;56.27;98544.78;8382598;28;20470;-71
2022/12/01 02:12:27;;;;;;;19.00;14.27;;;;;;;7.25;55.94;98544.50;8382649;28;20248;-71
2022/12/01 02:16:35;;;;;;;21.20;15.13;;;;;;;7.09;56.32;98540.56;8382425;28;20244;-71
2022/12/01 02:21:09;;;;;;;17.17;13.63;;;;;;;7.17;55.77;98526.63;8382213;28;20233;-71
2022/12/01 02:25:21;;;;;;;17.70;14.40;;;;;;;7.03;56.00;98528.66;8381778;28;20259;-71
2022/12/01 02:30:11;;;;;;;19.37;14.90;;;;;;;7.10;56.77;98527.66;8381829;28;20241;-71
2022/12/01 02:34:22;;;;;;;19.17;14.43;;;;;;;7.12;56.26;98525.91;8376370;28;20282;-71
2022/12/01 02:38:28;;;;;;;18.93;15.00;;;;;;;7.08;56.47;98525.97;8381565;28;20549;-71
2022/12/01 02:42:50;;;;;;;20.07;15.10;;;;;;;6.84;56.79;98516.16;8381614;28;20282;-71
2022/12/01 02:46:57;;;;;;;20.87;15.67;;;;;;;7.16;56.41;98521.50;8380703;28;20235;-70
2022/12/01 02:51:06;;;;;;;19.03;14.67;;;;;;;6.81;57.32;98531.66;8381215;28;20229;-71
2022/12/01 02:55:09;;;;;;;18.73;14.63;;;;;;;7.12;56.56;98530.19;8381113;28;20270;-71
2022/12/01 02:59:13;;;;;;;18.73;14.30;;;;;;;7.25;56.08;98518.72;8381006;28;20688;-71
2022/12/01 03:03:27;;;;;;;21.60;15.10;;;;;;;7.16;56.47;98521.50;8380659;28;20231;-71
2022/12/01 03:07:45;;;;;;;18.50;14.40;;;;;;;7.28;56.56;98517.84;8380773;28;20236;-71
2022/12/01 03:11:56;;;;;;;19.83;15.13;;;;;;;7.17;56.63;98516.31;8380877;28;20623;-71
2022/12/01 03:16:02;;;;;;;20.30;15.43;;;;;;;7.16;56.88;98512.06;8379928;28;20221;-71
2022/12/01 03:20:10;;;;;;;18.60;14.83;;;;;;;7.13;56.67;98509.53;8380437;28;20278;-71
2022/12/01 03:24:15;;;;;;;22.00;15.27;;;;;;;7.20;56.81;98505.13;8380619;28;20240;-70
2022/12/01 03:28:22;;;;;;;18.67;14.13;;;;;;;7.18;57.06;98504.31;8380274;28;20545;-71
2022/12/01 03:32:30;;;;;;;18.33;14.37;;;;;;;7.24;56.94;98501.59;8380328;28;20228;-71
2022/12/01 03:36:35;;;;;;;19.27;14.67;;;;;;;7.30;56.46;98500.59;8380300;28;20235;-71
2022/12/01 03:40:41;;;;;;;18.17;14.30;;;;;;;7.19;56.82;98508.56;8380132;28;20236;-71
2022/12/01 03:44:47;;;;;;;18.13;14.33;;;;;;;7.28;56.53;98503.22;8380251;28;20232;-71
2022/12/01 03:48:51;;;;;;;17.77;14.20;;;;;;;7.23;56.85;98502.47;8380101;28;20232;-71
2022/12/01 03:53:01;;;;;;;17.43;13.53;;;;;;;7.29;56.51;98504.91;8379629;28;20248;-70
2022/12/01 03:57:10;;;;;;;18.93;14.67;;;;;;;7.30;56.58;98508.34;8379786;28;20225;-71
2022/12/01 04:01:13;;;;;;;18.73;13.67;;;;;;;7.28;56.75;98500.63;8380018;28;20233;-71
2022/12/01 04:05:16;;;;;;;19.27;14.77;;;;;;;7.26;56.74;98497.25;8379844;28;20224;-71
2022/12/01 04:09:25;;;;;;;18.17;14.47;;;;;;;7.30;56.41;98508.34;8379914;28;20237;-71
2022/12/01 04:13:29;;;;;;;16.83;13.37;;;;;;;7.36;56.86;98498.72;8379681;28;20228;-71
2022/12/01 04:17:32;;;;;;;16.97;14.13;;;;;;;7.33;56.89;98501.38;8379527;28;20282;-71
2022/12/01 04:21:35;;;;;;;19.07;13.53;;;;;;;7.35;56.81;98509.06;8379465;28;20225;-71
2022/12/01 04:25:37;;;;;;;18.37;14.10;;;;;;;7.24;56.78;98502.44;8380488;28;20232;-71
2022/12/01 04:29:42;;;;;;;17.40;14.10;;;;;;;7.32;57.25;98501.41;8385828;28;20278;-71
2022/12/01 04:33:44;;;;;;;19.67;14.93;;;;;;;7.32;56.87;98506.56;8385477;28;20533;-71
2022/12/01 04:37:47;;;;;;;18.23;14.40;;;;;;;7.29;57.20;98497.19;8385378;28;20229;-71
2022/12/01 04:41:50;;;;;;;17.73;13.87;;;;;;;7.19;57.04;98500.84;8385287;28;20448;-71
2022/12/01 04:45:54;;;;;;;18.87;14.10;;;;;;;7.30;56.89;98498.88;8384812;28;20232;-70
2022/12/01 04:49:57;;;;;;;18.57;14.47;;;;;;;7.27;56.97;98495.50;8384670;28;20233;-71
2022/12/01 04:54:01;;;;;;;18.17;13.47;;;;;;;7.23;57.49;98499.88;8384889;28;20225;-71
2022/12/01 04:58:03;;;;;;;18.23;14.43;;;;;;;7.27;57.01;98506.66;8384927;28;20229;-71
2022/12/01 05:02:07;;;;;;;18.60;14.17;;;;;;;7.33;57.15;98503.97;8384218;28;20579;-71
2022/12/01 05:06:12;;;;;;;20.03;14.27;;;;;;;7.27;57.70;98492.94;8384572;28;20287;-70
2022/12/01 05:10:17;;;;;;;18.97;14.33;;;;;;;7.34;57.22;98508.22;8384492;28;20232;-71
2022/12/01 05:14:20;;;;;;;17.03;12.83;;;;;;;7.36;57.40;98518.50;8384290;28;20236;-71
2022/12/01 05:18:25;;;;;;;19.93;13.93;;;;;;;7.18;57.87;98525.75;8384119;28;20253;-71
2022/12/01 05:22:27;;;;;;;17.27;14.03;;;;;;;7.08;57.44;98500.22;8384097;28;20233;-71
2022/12/01 05:26:50;;;;;;;17.03;13.63;;;;;;;7.20;58.09;98518.84;8383921;28;20528;-71
2022/12/01 05:30:53;;;;;;;17.20;13.67;;;;;;;7.25;57.57;98511.00;8375488;28;20228;-70
2022/12/01 05:34:58;;;;;;;17.37;14.03;;;;;;;7.30;57.36;98501.44;8383660;28;20228;-71
2022/12/01 05:39:00;;;;;;;18.50;13.97;;;;;;;7.30;57.62;98509.19;8383162;28;20517;-72
2022/12/01 05:43:03;;;;;;;18.33;13.87;;;;;;;7.34;57.74;98512.53;8383649;28;20536;-71
2022/12/01 05:47:06;;;;;;;18.33;14.40;;;;;;;7.39;58.94;98511.56;8383266;28;20232;-73
2022/12/01 05:51:12;;;;;;;19.43;14.77;;;;;;;7.33;57.79;98513.41;8383190;28;20302;-74
2022/12/01 05:55:14;;;;;;;18.13;14.17;;;;;;;7.47;57.40;98505.38;8382862;28;20224;-71
2022/12/01 05:59:17;;;;;;;18.50;14.30;;;;;;;7.41;57.41;98498.63;8382923;28;20233;-71
2022/12/01 06:03:20;;;;;;;18.53;14.53;;;;;;;7.44;57.59;98483.94;8382828;28;20229;-71
2022/12/01 06:07:24;;;;;;;17.13;13.60;;;;;;;7.35;57.57;98491.88;8383042;28;20233;-71
2022/12/01 06:11:27;;;;;;;18.83;14.13;;;;;;;7.44;57.54;98496.84;8382908;28;20339;-70
2022/12/01 06:15:30;;;;;;;17.80;13.90;;;;;;;7.36;58.21;98493.56;8382714;28;20225;-71
2022/12/01 06:19:33;;;;;;;17.40;13.80;;;;;;;7.36;58.11;98500.47;8382579;28;20271;-71
2022/12/01 06:23:37;;;;;;;17.57;13.93;;;;;;;7.43;57.91;98504.59;8382167;28;20225;-71
2022/12/01 06:27:40;;;;;;;18.00;14.13;;;;;;;7.33;58.16;98511.69;8382113;28;20233;-72
2022/12/01 06:31:42;;;;;;;17.50;12.97;;;;;;;7.35;58.07;98509.94;8381668;28;20233;-71
2022/12/01 06:35:45;;;;;;;18.23;14.97;;;;;;;7.26;57.51;98504.13;8381692;28;20238;-71
2022/12/01 06:39:49;;;;;;;17.83;14.30;;;;;;;7.39;57.50;98515.88;8381399;28;20586;-71
2022/12/01 06:43:53;;;;;;;18.53;14.23;;;;;;;7.33;56.86;98514.28;8372864;28;20227;-69
2022/12/01 06:47:57;;;;;;;18.90;14.77;;;;;;;7.33;57.99;98521.13;8380172;28;20229;-71
2022/12/01 06:51:59;;;;;;;19.23;14.30;;;;;;;7.33;57.68;98522.00;8381149;28;20236;-71
2022/12/01 06:56:05;;;;;;;19.17;15.23;;;;;;;7.26;57.91;98532.47;8381033;28;20235;-71
2022/12/01 07:00:09;;;;;;;20.03;14.70;;;;;;;7.32;57.78;98522.03;8380242;28;20225;-71
2022/12/01 07:04:12;;;;;;;18.77;15.07;;;;;;;7.30;57.58;98534.94;8380496;28;20539;-71
2022/12/01 07:08:14;;;;;;;18.87;14.50;;;;;;;7.26;57.91;98532.47;8380671;28;20233;-71
2022/12/01 07:12:19;;;;;;;20.17;15.10;;;;;;;7.40;57.67;98530.44;8380627;28;20229;-72
2022/12/01 07:16:22;;;;;;;18.80;14.30;;;;;;;7.40;58.06;98528.69;8380570;28;20225;-72
2022/12/01 07:20:24;;;;;;;18.43;14.70;;;;;;;7.27;57.76;98532.41;8380172;28;20228;-71
2022/12/01 07:24:27;;;;;;;17.67;14.27;;;;;;;7.39;57.93;98526.16;8380304;28;20541;-72
2022/12/01 07:28:31;;;;;;;21.40;15.90;;;;;;;7.35;57.44;98525.38;8380042;28;20232;-71
2022/12/01 07:32:34;;;;;;;18.77;14.47;;;;;;;7.26;58.01;98527.31;8379755;28;20228;-72
2022/12/01 07:36:37;;;;;;;20.53;15.13;;;;;;;7.29;57.57;98543.56;8380194;28;20229;-72
2022/12/01 07:40:39;;;;;;;21.13;15.53;;;;;;;7.28;57.68;98539.28;8379906;28;20248;-72
2022/12/01 07:44:44;;;;;;;19.73;15.13;;;;;;;7.36;57.83;98541.69;8380122;28;20228;-72
2022/12/01 07:48:47;;;;;;;20.23;15.30;;;;;;;7.39;57.64;98539.06;8379852;28;20229;-72
2022/12/01 07:52:50;;;;;;;18.83;14.90;;;;;;;7.54;57.63;98532.69;8379760;28;20229;-72
2022/12/01 07:56:53;;;;;;;18.47;14.80;;;;;;;7.36;57.93;98539.94;8379539;28;20231;-71
2022/12/01 08:00:57;;;;;;;20.97;16.07;;;;;;;7.50;57.33;98541.38;8382983;28;20252;-71
2022/12/01 08:05:00;;;;;;;20.60;15.00;;;;;;;7.44;57.48;98538.06;8386139;28;20294;-72
2022/12/01 08:09:03;;;;;;;22.63;15.23;;;;;;;7.70;57.29;98541.75;8386238;28;20521;-72
2022/12/01 08:13:06;;;;;;;22.63;15.10;;;;;;;7.70;56.82;98540.91;8386207;28;20224;-71
2022/12/01 08:17:10;;;;;;;19.23;15.10;;;;;;;7.67;57.27;98538.41;8386060;28;20233;-71
2022/12/01 08:21:15;;;;;;;18.73;14.97;;;;;;;7.78;57.17;98532.09;8385807;28;20279;-71
2022/12/01 08:25:17;;;;;;;21.00;15.33;;;;;;;7.62;57.14;98530.78;8385759;28;20443;-71
2022/12/01 08:29:20;;;;;;;20.23;14.90;;;;;;;7.73;57.15;98538.25;8385434;28;20233;-72
2022/12/01 08:33:24;;;;;;;20.73;15.23;;;;;;;7.77;57.33;98532.16;8385315;28;20240;-72
2022/12/01 08:37:27;;;;;;;20.20;15.23;;;;;;;7.91;56.53;98536.97;8385267;28;20232;-72
2022/12/01 08:41:30;;;;;;;21.13;15.13;;;;;;;8.00;56.99;98542.75;8385196;28;20236;-72
2022/12/01 08:45:33;;;;;;;19.87;15.20;;;;;;;7.87;56.73;98520.72;8385086;28;20465;-72
2022/12/01 08:49:37;;;;;;;19.87;14.93;;;;;;;8.06;56.32;98544.34;8385062;28;20481;-72
2022/12/01 08:53:42;;;;;;;18.30;14.70;;;;;;;8.19;56.12;98545.72;8384946;28;20237;-72
2022/12/01 08:57:47;;;;;;;19.60;14.93;;;;;;;8.10;56.57;98551.13;8384892;28;20244;-72
2022/12/01 09:01:53;;;;;;;19.40;14.37;;;;;;;8.15;56.26;98535.53;8384445;28;20229;-72
2022/12/01 09:06:03;;;;;;;17.67;13.60;;;;;;;8.38;55.79;98553.00;8383905;28;20233;-71
2022/12/01 09:10:07;;;;;;;20.33;15.60;;;;;;;8.07;56.02;98558.06;8384228;28;20236;-72
2022/12/01 09:14:10;;;;;;;19.83;15.33;;;;;;;8.52;55.69;98558.66;8383270;28;20233;-72
2022/12/01 09:18:13;;;;;;;18.07;14.07;;;;;;;8.45;55.67;98562.28;8384224;28;20232;-71
2022/12/01 09:22:17;;;;;;;19.00;14.10;;;;;;;8.43;55.40;98563.22;8383954;28;20225;-72
2022/12/01 09:26:20;;;;;;;21.07;15.60;;;;;;;8.19;56.23;98562.94;8383862;28;20229;-71
2022/12/01 09:30:22;;;;;;;19.43;15.57;;;;;;;8.45;55.34;98562.28;8383619;28;20270;-72
2022/12/01 09:34:26;;;;;;;19.27;14.33;;;;;;;8.31;55.91;98552.28;8383534;28;20229;-72
2022/12/01 09:38:31;;;;;;;20.60;15.00;;;;;;;8.51;54.83;98563.84;8383669;28;20233;-72
2022/12/01 09:42:34;;;;;;;21.17;15.13;;;;;;;8.70;54.05;98551.31;8383269;28;20252;-72
2022/12/01 09:46:40;;;;;;;19.07;13.90;;;;;;;9.07;54.87;98550.28;8383417;28;20533;-72
2022/12/01 09:50:43;;;;;;;18.97;14.87;;;;;;;8.84;54.49;98548.38;8383046;28;20240;-72
2022/12/01 09:54:48;;;;;;;19.77;14.20;;;;;;;9.09;54.07;98544.16;8382806;28;20268;-72
2022/12/01 09:58:52;;;;;;;20.13;14.23;;;;;;;9.12;53.71;98535.47;8382841;28;20229;-72
2022/12/01 10:02:59;;;;;;;20.40;15.30;;;;;;;9.53;52.30;98533.41;8374510;28;20225;-71
2022/12/01 10:07:03;;;;;;;19.50;14.97;;;;;;;9.37;52.74;98540.78;8382722;28;20521;-71
2022/12/01 10:11:13;;;;;;;17.37;13.50;;;;;;;9.68;52.74;98529.47;8382558;28;20399;-71
2022/12/01 10:15:27;;;;;;;18.17;14.07;;;;;;;9.19;52.23;98500.81;8382597;28;20292;-72
2022/12/01 10:19:34;;;;;;;17.60;14.07;;;;;;;9.50;52.63;98516.25;8382222;28;20255;-72
2022/12/01 10:23:52;;;;;;;19.83;14.87;;;;;;;9.58;52.79;98514.25;8382293;28;20527;-72
2022/12/01 10:28:07;;;;;;;18.97;14.43;;;;;;;9.53;52.45;98505.78;8381662;28;20241;-71
2022/12/01 10:32:17;;;;;;;17.13;14.40;;;;;;;9.63;52.64;98502.91;8381990;28;20268;-72
2022/12/01 10:36:19;;;;;;;18.53;14.77;;;;;;;9.48;53.08;98497.34;8381941;28;20229;-72
2022/12/01 10:40:22;;;;;;;18.47;14.70;;;;;;;9.58;52.80;98490.16;8381761;28;20246;-72
2022/12/01 10:44:28;;;;;;;20.47;14.70;;;;;;;9.70;52.66;98491.50;8381496;28;20226;-71
2022/12/01 10:48:30;;;;;;;18.90;14.73;;;;;;;9.71;51.74;98498.34;8381562;28;20239;-72
2022/12/01 10:52:36;;;;;;;19.47;15.13;;;;;;;9.56;52.52;98489.34;8381523;28;20244;-73
2022/12/01 10:56:40;;;;;;;20.07;15.10;;;;;;;9.76;52.40;98499.03;8381666;28;20539;-72
2022/12/01 11:00:44;;;;;;;18.00;14.07;;;;;;;10.02;52.13;98493.00;8380937;28;20279;-72
2022/12/01 11:05:05;;;;;;;18.77;13.90;;;;;;;10.12;51.72;98496.97;8380584;28;20290;-71
2022/12/01 11:09:18;;;;;;;19.47;14.23;;;;;;;9.98;51.92;98473.31;8380966;28;20421;-72
2022/12/01 11:13:29;;;;;;;19.63;15.20;;;;;;;10.21;51.72;98479.44;8380851;28;20256;-72
2022/12/01 11:17:36;;;;;;;19.73;14.30;;;;;;;10.36;51.67;98477.19;8380321;28;20242;-72
2022/12/01 11:21:46;;;;;;;17.27;14.20;;;;;;;10.31;51.09;98476.50;8380428;28;20235;-72
2022/12/01 11:25:57;;;;;;;17.23;13.50;;;;;;;10.20;51.90;98475.16;8377513;28;20278;-72
2022/12/01 11:30:03;;;;;;;18.40;13.10;;;;;;;10.07;50.08;98477.31;8379672;28;20241;-72
2022/12/01 11:34:15;;;;;;;17.57;13.93;;;;;;;10.26;49.32;98470.63;8379840;28;20236;-71
2022/12/01 11:38:22;;;;;;;17.80;14.10;;;;;;;9.85;50.22;98472.03;8380291;28;20244;-71
2022/12/01 11:42:33;;;;;;;16.20;13.53;;;;;;;9.70;49.92;98469.03;8380210;28;20240;-72
2022/12/01 11:46:39;;;;;;;15.60;13.10;;;;;;;9.92;50.35;98447.66;8379665;28;20233;-72
2022/12/01 11:51:06;;;;;;;17.77;13.53;;;;;;;9.96;49.75;98455.25;8380593;28;20228;-72
2022/12/01 11:55:20;;;;;;;16.33;13.00;;;;;;;9.61;50.59;98460.75;8373651;28;20239;-71
2022/12/01 11:59:25;;;;;;;18.60;14.47;;;;;;;9.71;50.61;98456.94;8380091;28;20282;-71
2022/12/01 12:03:32;;;;;;;18.03;13.83;;;;;;;9.87;50.52;98454.72;8379712;28;20290;-72
2022/12/01 12:07:44;;;;;;;16.77;13.47;;;;;;;10.16;49.74;98457.13;8379791;28;20231;-71
2022/12/01 12:11:53;;;;;;;17.43;13.70;;;;;;;9.83;50.50;98455.72;8379625;28;20236;-71
2022/12/01 12:16:01;;;;;;;22.40;18.33;;;;;;;9.57;49.88;98453.06;8379033;28;20225;-71
2022/12/01 12:20:20;;;;;;;20.07;16.33;;;;;;;9.62;51.13;98445.19;8379193;28;20233;-71
2022/12/01 12:24:37;;;;;;;17.03;13.47;;;;;;;10.25;50.16;98444.78;8379703;28;20250;-71
2022/12/01 12:28:53;;;;;;;16.97;12.97;;;;;;;10.24;49.96;98441.34;8379323;28;20247;-71
2022/12/01 12:33:22;;;;;;;16.67;13.00;;;;;;;10.31;49.93;98436.84;8379042;28;20238;-71
2022/12/01 12:37:30;;;;;;;17.20;13.03;;;;;;;10.35;49.75;98428.88;8379548;28;20238;-71
2022/12/01 12:41:36;;;;;;;17.60;12.50;;;;;;;10.77;49.40;98424.78;8379274;28;20515;-71
2022/12/01 12:45:46;;;;;;;16.13;12.67;;;;;;;10.43;49.36;98409.66;8379208;28;20251;-71
2022/12/01 12:49:54;;;;;;;14.23;11.57;;;;;;;10.46;49.79;98419.91;8385246;28;20229;-71
2022/12/01 12:54:01;;;;;;;16.57;11.97;;;;;;;10.53;48.95;98423.97;8377463;28;20500;-71
2022/12/01 12:58:10;;;;;;;16.03;12.77;;;;;;;10.43;49.80;98420.84;8385114;28;20231;-71
2022/12/01 13:02:16;;;;;;;15.13;12.27;;;;;;;10.34;50.40;98416.03;8384541;28;20279;-71
2022/12/01 13:06:23;;;;;;;15.23;12.90;;;;;;;10.21;50.67;98414.75;8384866;28;20627;-71
2022/12/01 13:10:32;;;;;;;16.67;12.87;;;;;;;10.15;50.48;98414.06;8384949;28;20237;-71
2022/12/01 13:14:39;;;;;;;15.50;12.67;;;;;;;10.13;51.47;98423.63;8384645;28;20438;-71
2022/12/01 13:18:45;;;;;;;15.10;12.47;;;;;;;10.18;50.79;98421.72;8383929;28;20229;-71
2022/12/01 13:22:48;;;;;;;17.30;12.50;;;;;;;10.18;51.21;98424.31;8384320;28;20310;-72
2022/12/01 13:26:53;;;;;;;16.03;12.70;;;;;;;10.16;51.28;98413.13;8384202;28;20402;-71
2022/12/01 13:31:03;;;;;;;16.33;12.73;;;;;;;9.95;50.96;98417.31;8375778;28;20230;-71
2022/12/01 13:35:21;;;;;;;17.33;12.70;;;;;;;9.85;51.16;98409.97;8383766;28;20240;-72
2022/12/01 13:39:26;;;;;;;14.77;12.03;;;;;;;9.97;51.84;98410.34;8383990;28;20235;-71
2022/12/01 13:43:29;;;;;;;15.00;12.47;;;;;;;9.93;52.25;98416.53;8383666;28;20241;-71
2022/12/01 13:47:39;;;;;;;15.63;13.00;;;;;;;10.04;52.01;98412.75;8383408;28;20541;-71
2022/12/01 13:52:27;;;;;;;16.57;13.17;;;;;;;9.73;52.42;98406.06;8383465;28;20252;-71
2022/12/01 13:56:45;;;;;;;14.23;12.27;;;;;;;9.85;52.38;98381.50;8383241;28;20231;-71
2022/12/01 14:00:49;;;;;;;16.00;13.17;;;;;;;9.74;52.84;98395.63;8383096;28;20494;-71
2022/12/01 14:04:54;;;;;;;15.37;12.03;;;;;;;9.82;53.15;98394.53;8382683;28;20240;-70
2022/12/01 14:08:59;;;;;;;22.37;15.07;;;;;;;9.82;52.89;98397.94;8382733;28;20240;-71
2022/12/01 14:13:04;;;;;;;16.67;13.47;;;;;;;9.71;53.47;98398.34;8382496;28;20234;-71
2022/12/01 14:17:22;;;;;;;19.17;14.37;;;;;;;9.80;53.13;98397.16;8382840;28;20540;-71
2022/12/01 14:21:50;;;;;;;18.20;13.17;;;;;;;9.73;52.77;98390.53;8382716;28;20458;-71
2022/12/01 14:26:04;;;;;;;16.53;12.90;;;;;;;9.83;53.20;98391.06;8367505;28;20242;-71
2022/12/01 14:30:44;;;;;;;17.83;13.17;;;;;;;9.86;53.22;98399.56;8382149;28;20293;-72
2022/12/01 14:34:52;;;;;;;14.63;12.03;;;;;;;9.81;53.20;98398.03;8381890;28;20229;-72
2022/12/01 14:39:03;;;;;;;15.27;12.83;;;;;;;9.72;53.28;98396.59;8373875;28;20227;-72
2022/12/01 14:47:29;;;;;;;15.53;13.07;;;;;;;9.63;53.79;98389.13;8382049;28;20238;-73
2022/12/01 14:51:35;;;;;;;16.93;13.30;;;;;;;9.64;53.88;98389.09;8381495;28;20297;-72
2022/12/01 14:55:41;;;;;;;16.23;12.97;;;;;;;9.56;53.92;98391.94;8381740;28;20274;-72
2022/12/01 14:59:44;;;;;;;14.50;11.87;;;;;;;9.57;54.29;98382.44;8381350;28;20602;-72
2022/12/01 15:03:50;;;;;;;14.67;11.83;;;;;;;9.58;54.11;98390.13;8381298;28;20412;-73
2022/12/01 15:07:54;;;;;;;16.80;13.20;;;;;;;9.49;54.68;98390.44;8372531;28;20230;-74
2022/12/01 15:12:26;;;;;;;15.00;11.87;;;;;;;9.54;54.39;98390.31;8380464;28;20289;-73
2022/12/01 15:16:30;;;;;;;15.97;12.60;;;;;;;9.39;54.72;98379.56;8381338;28;20336;-73
2022/12/01 15:20:35;;;;;;;17.23;13.57;;;;;;;9.30;54.73;98379.84;8380663;28;20231;-72
2022/12/01 15:24:38;;;;;;;14.67;11.97;;;;;;;9.45;54.64;98398.38;8380549;28;20242;-72
2022/12/01 15:28:42;;;;;;;21.17;12.90;;;;;;;9.46;55.56;98403.50;8380427;28;20446;-72
2022/12/01 15:32:46;;;;;;;15.07;13.00;;;;;;;9.31;55.42;98398.78;8380811;28;20521;-73
2022/12/01 15:36:49;;;;;;;15.40;12.07;;;;;;;9.23;55.77;98401.63;8380744;28;20235;-72
2022/12/01 15:40:53;;;;;;;15.23;12.83;;;;;;;9.30;55.51;98400.53;8379671;28;20230;-70
2022/12/01 15:45:19;;;;;;;17.73;13.20;;;;;;;9.16;55.67;98395.81;8380447;28;20385;-71
2022/12/01 15:49:26;;;;;;;16.17;12.40;;;;;;;9.11;55.97;98405.44;8380873;28;20228;-72
2022/12/01 15:53:31;;;;;;;15.47;11.90;;;;;;;9.11;54.91;98404.59;8380307;28;20236;-72
2022/12/01 15:57:34;;;;;;;15.57;12.53;;;;;;;9.10;55.90;98401.19;8380337;28;20243;-71
2022/12/01 16:01:39;;;;;;;20.03;15.03;;;;;;;9.03;55.95;98398.84;8380080;28;20448;-71
2022/12/01 16:05:44;;;;;;;17.27;14.30;;;;;;;8.99;56.00;98403.25;8380248;28;20573;-71
2022/12/01 16:09:56;;;;;;;17.00;13.57;;;;;;;9.05;55.84;98397.91;8380056;28;20232;-71
2022/12/01 16:14:06;;;;;;;16.50;12.83;;;;;;;9.12;55.72;98395.94;8379636;28;20546;-71
2022/12/01 16:18:26;;;;;;;16.20;12.43;;;;;;;8.99;55.93;98387.75;8379983;28;20233;-71
2022/12/01 16:22:29;;;;;;;17.67;12.50;;;;;;;9.10;56.18;98382.22;8384187;28;20263;-71
2022/12/01 16:26:33;;;;;;;16.60;13.37;;;;;;;9.14;56.03;98396.78;8386289;28;20237;-71
2022/12/01 16:30:39;;;;;;;17.63;13.27;;;;;;;9.03;55.90;98397.09;8386276;28;20383;-71
2022/12/01 16:34:43;;;;;;;18.30;13.60;;;;;;;8.85;56.20;98390.75;8386221;28;20291;-71
2022/12/01 16:38:48;;;;;;;17.27;13.27;;;;;;;9.08;56.17;98409.84;8386251;28;20232;-71
2022/12/01 16:42:51;;;;;;;18.23;13.57;;;;;;;8.99;56.32;98413.59;8386008;28;20241;-72
2022/12/01 16:46:53;;;;;;;17.80;13.63;;;;;;;8.90;56.47;98414.72;8385408;28;20415;-72
2022/12/01 16:51:02;;;;;;;19.23;14.97;;;;;;;8.88;55.86;98405.31;8385576;28;20238;-72
2022/12/01 16:55:10;;;;;;;19.17;13.70;;;;;;;8.88;56.58;98411.31;8385244;28;20376;-72
2022/12/01 16:59:13;;;;;;;18.33;13.80;;;;;;;8.88;56.67;98416.50;8385079;28;20261;-71
2022/12/01 17:03:17;;;;;;;17.53;13.70;;;;;;;8.58;56.88;98413.09;8384931;28;20229;-72
2022/12/01 17:07:21;;;;;;;18.20;13.67;;;;;;;8.61;56.74;98415.59;8385171;28;20231;-72
2022/12/01 17:11:24;;;;;;;19.40;13.87;;;;;;;8.47;57.03;98413.38;8385083;28;20271;-72
2022/12/01 17:15:27;;;;;;;20.07;15.10;;;;;;;8.71;56.23;98418.75;8384699;28;20233;-71
2022/12/01 17:19:30;;;;;;;21.37;15.73;;;;;;;8.75;56.80;98415.16;8384703;28;20382;-72
2022/12/01 17:23:36;;;;;;;19.43;14.17;;;;;;;8.73;56.59;98415.22;8384332;28;20283;-72
2022/12/01 17:27:40;;;;;;;17.73;14.20;;;;;;;8.74;57.14;98405.75;8384152;28;20517;-72
2022/12/01 17:31:43;;;;;;;21.17;14.53;;;;;;;8.79;56.43;98402.09;8383900;28;20290;-72
2022/12/01 17:35:48;;;;;;;16.93;13.43;;;;;;;8.75;56.38;98405.69;8383859;28;20438;-71
2022/12/01 17:39:53;;;;;;;17.77;13.80;;;;;;;8.60;56.79;98404.41;8383869;28;20244;-71
2022/12/01 17:43:56;;;;;;;18.97;14.30;;;;;;;8.66;56.80;98399.94;8375699;28;20294;-72
2022/12/01 17:47:58;;;;;;;17.93;14.43;;;;;;;8.52;56.80;98387.44;8383508;28;20229;-71
2022/12/01 17:52:01;;;;;;;18.07;13.73;;;;;;;8.79;56.31;98409.00;8383447;28;20275;-71
2022/12/01 17:56:08;;;;;;;17.37;13.47;;;;;;;8.78;56.12;98405.59;8383222;28;20234;-71
2022/12/01 18:00:12;;;;;;;19.27;13.50;;;;;;;8.72;56.38;98410.09;8383404;28;20234;-71
2022/12/01 18:04:14;;;;;;;16.53;12.70;;;;;;;8.89;56.58;98418.19;8383003;28;20227;-71
2022/12/01 18:08:17;;;;;;;18.77;13.83;;;;;;;8.64;56.84;98418.06;8383045;28;20237;-71
2022/12/01 18:12:21;;;;;;;18.83;13.63;;;;;;;8.40;55.82;98362.81;8382758;28;20279;-71
2022/12/01 18:16:25;;;;;;;17.30;13.50;;;;;;;8.65;56.45;98424.09;8382660;28;20229;-71
2022/12/01 18:20:28;;;;;;;16.20;12.80;;;;;;;8.80;56.49;98416.72;8382992;28;20236;-71
2022/12/01 18:24:31;;;;;;;18.07;13.00;;;;;;;8.69;56.52;98426.53;8382433;28;20241;-71
2022/12/01 18:28:35;;;;;;;15.70;12.30;;;;;;;8.73;55.77;98417.78;8382694;28;20528;-71
2022/12/01 18:32:38;;;;;;;16.57;11.97;;;;;;;8.62;56.35;98427.59;8382172;28;20240;-71
2022/12/01 18:36:41;;;;;;;15.00;12.13;;;;;;;8.70;55.59;98433.41;8382243;28;20240;-70
2022/12/01 18:40:44;;;;;;;16.37;13.07;;;;;;;8.58;55.94;98429.41;8382006;28;20236;-71
2022/12/01 18:44:48;;;;;;;16.83;12.93;;;;;;;8.75;55.98;98434.09;8380554;28;20300;-70
2022/12/01 18:48:53;;;;;;;17.53;12.63;;;;;;;8.71;56.38;98434.22;8381538;28;20532;-71
2022/12/01 18:52:55;;;;;;;15.73;11.87;;;;;;;8.60;56.30;98424.19;8380920;28;20229;-70
2022/12/01 18:56:58;;;;;;;15.90;12.27;;;;;;;8.78;56.52;98423.66;8381413;28;20233;-71
2022/12/01 19:01:04;;;;;;;17.17;13.20;;;;;;;8.66;56.65;98429.19;8381136;28;20236;-71
2022/12/01 19:05:07;;;;;;;17.90;13.03;;;;;;;8.76;56.82;98424.63;8381213;28;20293;-71
2022/12/01 19:09:11;;;;;;;17.73;13.27;;;;;;;8.55;56.64;98416.59;8381230;28;20232;-71